Time;durP1;ratioP1;P1;durP2;ratioP2;P2;SDS_P1;SDS_P2;PMS_P1;PMS_P2;Temp;Humidity;BMP_temperature;BMP_pressure;BME280_temperature;BME280_humidity;BME280_pressure;Samples;Min_cycle;Max_cycle;Signal;HPM_P1;HPM_P2
2024/01/19 00:01:26;;;;;;;;;5.75;3.00;;;;;7.73;60.72;100310.44;5118463;27;45369;-68
2024/01/19 00:03:51;;;;;;;;;4.50;2.75;;;;;7.52;61.26;100300.13;5118626;27;45366;-68
2024/01/19 00:06:17;;;;;;;;;6.00;6.00;;;;;7.50;62.65;100298.28;5119063;27;45559;-68
2024/01/19 00:08:43;;;;;;;;;5.00;2.75;;;;;7.17;62.29;100268.44;5118430;27;45477;-68
2024/01/19 00:11:15;;;;;;;;;5.75;5.00;;;;;7.52;61.87;100297.53;5118338;27;45438;-68
2024/01/19 00:13:43;;;;;;;;;6.00;6.00;;;;;7.42;61.40;100299.69;5118545;27;45577;-68
2024/01/19 00:16:09;;;;;;;;;6.00;5.00;;;;;7.31;61.73;100314.88;5118773;27;45509;-68
2024/01/19 00:18:35;;;;;;;;;7.00;6.25;;;;;7.24;62.43;100300.78;5118128;27;45873;-68
2024/01/19 00:21:00;;;;;;;;;7.00;6.00;;;;;7.07;63.26;100296.63;5118691;27;45505;-68
2024/01/19 00:23:26;;;;;;;;;6.25;5.00;;;;;7.08;63.18;100281.09;5118522;27;45306;-68
2024/01/19 00:25:52;;;;;;;;;7.00;7.00;;;;;7.06;63.09;100264.56;5118649;27;45545;-68
2024/01/19 00:28:17;;;;;;;;;9.00;9.00;;;;;7.09;63.24;100269.00;5116909;27;46270;-68
2024/01/19 00:30:43;;;;;;;;;9.50;9.50;;;;;7.03;63.31;100263.56;5116502;27;45511;-70
2024/01/19 00:33:09;;;;;;;;;14.50;11.00;;;;;7.14;62.85;100298.63;5118046;27;45311;-70
2024/01/19 00:35:35;;;;;;;;;14.75;11.00;;;;;7.01;63.42;100284.25;5117912;27;45501;-74
2024/01/19 00:38:00;;;;;;;;;9.50;8.50;;;;;6.94;63.76;100271.84;5117852;27;46038;-73
2024/01/19 00:40:26;;;;;;;;;9.00;9.00;;;;;6.83;64.01;100281.81;5116328;27;45246;-68
2024/01/19 00:42:52;;;;;;;;;9.75;7.75;;;;;6.88;64.19;100293.25;5117612;27;45560;-68
2024/01/19 00:45:17;;;;;;;;;10.75;7.00;;;;;6.90;63.89;100293.31;5118154;27;45466;-68
2024/01/19 00:47:43;;;;;;;;;10.25;8.25;;;;;6.92;63.76;100300.38;5120135;27;46081;-68
2024/01/19 00:50:09;;;;;;;;;9.75;8.75;;;;;6.80;64.13;100305.03;5121567;27;45358;-68
2024/01/19 00:52:36;;;;;;;;;6.25;6.00;;;;;6.71;64.09;100320.25;5121876;27;45510;-68
2024/01/19 00:55:02;;;;;;;;;9.00;7.00;;;;;6.73;64.70;100314.28;5122115;27;45340;-68
2024/01/19 00:57:28;;;;;;;;;13.25;10.00;;;;;6.44;64.84;100270.66;5121470;27;45358;-68
2024/01/19 00:59:55;;;;;;;;;10.50;8.50;;;;;6.75;65.00;100323.03;5121495;27;45360;-68
2024/01/19 01:02:20;;;;;;;;;9.75;8.00;;;;;6.88;64.64;100329.59;5121557;27;45325;-68
2024/01/19 01:04:46;;;;;;;;;11.25;9.00;;;;;6.93;64.16;100317.72;5121647;27;45372;-68
2024/01/19 01:07:12;;;;;;;;;9.75;9.00;;;;;7.03;64.39;100328.47;5121127;27;45889;-68
2024/01/19 01:09:38;;;;;;;;;2.00;1.75;;;;;7.02;64.16;100327.56;5121326;27;45482;-68
2024/01/19 01:12:05;;;;;;;;;8.50;7.00;;;;;7.09;64.18;100323.53;5121662;27;45617;-68
2024/01/19 01:14:30;;;;;;;;;11.25;9.00;;;;;6.94;63.58;100300.41;5121464;27;45430;-74
2024/01/19 01:16:56;;;;;;;;;9.00;9.00;;;;;7.11;63.54;100335.75;5121233;27;45364;-68
2024/01/19 01:19:21;;;;;;;;;11.00;9.00;;;;;7.13;63.18;100322.84;5121218;27;45534;-68
2024/01/19 01:21:47;;;;;;;;;11.00;9.25;;;;;7.16;63.26;100328.13;5121271;27;45375;-68
2024/01/19 01:24:13;;;;;;;;;10.75;8.75;;;;;7.15;63.09;100326.38;5121391;27;45368;-68
2024/01/19 01:26:38;;;;;;;;;10.00;9.75;;;;;6.94;63.06;100295.22;5120952;27;46004;-68
2024/01/19 01:29:04;;;;;;;;;9.75;6.75;;;;;7.06;63.24;100320.81;5120073;27;45238;-71
2024/01/19 01:31:29;;;;;;;;;12.25;8.75;;;;;7.04;62.64;100310.34;5120965;27;45510;-74
2024/01/19 01:33:55;;;;;;;;;8.75;7.00;;;;;7.21;62.46;100337.00;5121286;27;45267;-73
2024/01/19 01:36:21;;;;;;;;;8.50;8.00;;;;;7.06;62.17;100297.41;5120838;27;45243;-74
2024/01/19 01:38:47;;;;;;;;;13.50;9.50;;;;;7.24;61.68;100336.25;5120894;27;45336;-74
2024/01/19 01:41:12;;;;;;;;;6.75;6.75;;;;;7.28;61.82;100340.72;5121074;27;45375;-74
2024/01/19 01:43:38;;;;;;;;;13.00;8.50;;;;;7.13;61.44;100309.84;5121104;27;45474;-67
2024/01/19 01:46:04;;;;;;;;;11.50;9.00;;;;;7.17;61.48;100338.59;5120997;27;45888;-68
2024/01/19 01:48:29;;;;;;;;;12.25;9.25;;;;;7.15;61.85;100336.78;5120783;27;45443;-67
2024/01/19 01:50:56;;;;;;;;;9.00;7.25;;;;;7.18;61.92;100342.06;5120797;27;45326;-68
2024/01/19 01:53:23;;;;;;;;;5.25;4.00;;;;;7.15;61.35;100339.38;5121089;27;45486;-67
2024/01/19 01:55:49;;;;;;;;;7.00;6.00;;;;;7.02;61.90;100343.16;5120533;27;46137;-68
2024/01/19 01:58:16;;;;;;;;;7.00;6.25;;;;;7.07;61.85;100339.06;5119205;27;45539;-73
2024/01/19 02:00:43;;;;;;;;;7.00;6.00;;;;;7.09;61.67;100340.00;5120671;27;45401;-68
2024/01/19 02:03:09;;;;;;;;;6.25;6.25;;;;;6.87;61.68;100308.78;5120971;27;45388;-67
2024/01/19 02:05:34;;;;;;;;;6.75;5.00;;;;;6.92;61.71;100323.75;5120521;27;46066;-67
2024/01/19 02:08:00;;;;;;;;;8.50;6.00;;;;;7.03;61.90;100350.16;5120383;27;45462;-67
2024/01/19 02:10:26;;;;;;;;;3.00;2.25;;;;;6.82;61.54;100310.31;5120594;27;45475;-67
2024/01/19 02:12:52;;;;;;;;;6.25;5.25;;;;;6.83;61.85;100317.28;5120619;27;45444;-67
2024/01/19 02:15:25;;;;;;;;;7.00;6.75;;;;;7.03;61.82;100349.25;5120174;27;45383;-67
2024/01/19 02:17:52;;;;;;;;;9.00;9.00;;;;;6.79;62.31;100321.47;5120324;27;45350;-67
2024/01/19 02:20:18;;;;;;;;;9.50;8.00;;;;;6.95;62.29;100341.16;5120359;27;45481;-67
2024/01/19 02:22:45;;;;;;;;;9.00;7.75;;;;;6.94;62.03;100337.69;5120441;27;45529;-67
2024/01/19 02:25:12;;;;;;;;;8.50;7.00;;;;;6.91;62.24;100341.84;5120133;27;46230;-67
2024/01/19 02:27:38;;;;;;;;;10.00;7.00;;;;;6.64;62.49;100310.44;5120343;27;45485;-67
2024/01/19 02:30:07;;;;;;;;;10.00;9.00;;;;;6.83;62.76;100340.66;5120192;27;45351;-72
2024/01/19 02:32:32;;;;;;;;;6.75;6.00;;;;;6.75;63.01;100355.91;5120403;27;45446;-68
2024/01/19 02:34:58;;;;;;;;;11.00;9.25;;;;;6.70;63.21;100353.09;5119722;27;45534;-68
2024/01/19 02:37:24;;;;;;;;;9.50;7.00;;;;;6.62;63.17;100361.38;5119740;27;45471;-67
2024/01/19 02:39:50;;;;;;;;;9.50;9.00;;;;;6.57;63.53;100359.47;5119998;27;45363;-68
2024/01/19 02:42:15;;;;;;;;;8.00;7.00;;;;;6.51;63.49;100367.00;5120128;27;45481;-67
2024/01/19 02:44:41;;;;;;;;;8.50;6.50;;;;;6.48;63.97;100343.50;5120041;27;45955;-68
2024/01/19 02:47:06;;;;;;;;;6.75;5.75;;;;;6.42;64.39;100344.97;5120211;27;45448;-68
2024/01/19 02:49:32;;;;;;;;;7.00;5.50;;;;;6.27;64.22;100332.22;5119960;27;45453;-67
2024/01/19 02:51:58;;;;;;;;;6.00;6.00;;;;;6.23;64.08;100320.81;5119934;27;45236;-68
2024/01/19 02:54:23;;;;;;;;;8.50;6.00;;;;;6.38;64.35;100341.34;5119750;27;45744;-67
2024/01/19 02:56:49;;;;;;;;;10.25;9.50;;;;;6.40;64.17;100344.88;5119582;27;45963;-67
2024/01/19 02:59:15;;;;;;;;;9.75;9.00;;;;;6.42;64.31;100334.59;5119762;27;45316;-68
2024/01/19 03:01:40;;;;;;;;;9.75;9.00;;;;;6.40;64.05;100315.47;5120105;27;45328;-68
2024/01/19 03:04:06;;;;;;;;;14.25;9.00;;;;;6.42;64.01;100324.19;5118076;27;46233;-67
2024/01/19 03:06:32;;;;;;;;;7.00;6.25;;;;;6.30;63.83;100302.09;5119561;27;45494;-68
2024/01/19 03:08:57;;;;;;;;;9.00;6.50;;;;;6.53;63.65;100331.63;5119391;27;45949;-67
2024/01/19 03:11:23;;;;;;;;;6.00;6.00;;;;;6.55;64.35;100329.09;5118091;27;45501;-71
2024/01/19 03:13:50;;;;;;;;;9.25;9.00;;;;;6.62;64.58;100325.06;5119538;27;46018;-68
2024/01/19 03:16:16;;;;;;;;;9.50;6.75;;;;;6.43;64.76;100279.28;5119224;27;45363;-68
2024/01/19 03:18:42;;;;;;;;;9.00;6.00;;;;;6.66;64.47;100298.41;5119730;27;45532;-68
2024/01/19 03:21:08;;;;;;;;;7.00;7.00;;;;;6.91;64.15;100314.16;5119606;27;45502;-68
2024/01/19 03:23:34;;;;;;;;;7.00;7.00;;;;;6.97;64.62;100314.41;5119317;27;45485;-67
2024/01/19 03:26:00;;;;;;;;;7.50;6.00;;;;;7.04;64.55;100314.66;5118931;27;45335;-68
2024/01/19 03:28:25;;;;;;;;;7.50;6.75;;;;;7.09;64.64;100298.44;5119224;27;45467;-68
2024/01/19 03:30:51;;;;;;;;;5.75;5.50;;;;;7.13;65.13;100295.13;5119484;27;45931;-68
2024/01/19 03:33:16;;;;;;;;;7.25;6.00;;;;;7.15;65.03;100306.47;5118948;27;45573;-68
2024/01/19 03:35:42;;;;;;;;;9.50;7.00;;;;;7.02;64.93;100266.97;5119413;27;45281;-68
2024/01/19 03:38:08;;;;;;;;;8.00;5.00;;;;;7.27;64.62;100294.81;5119230;27;45480;-68
2024/01/19 03:40:34;;;;;;;;;10.00;7.25;;;;;7.27;64.19;100294.81;5119079;27;45228;-68
2024/01/19 03:42:59;;;;;;;;;8.25;6.00;;;;;7.36;64.16;100306.44;5118796;27;45390;-67
2024/01/19 03:45:25;;;;;;;;;9.00;9.00;;;;;7.34;64.17;100310.69;5118926;27;45518;-67
2024/01/19 03:47:51;;;;;;;;;8.75;8.00;;;;;7.15;65.38;100311.66;5118969;27;45497;-68
2024/01/19 03:50:17;;;;;;;;;6.50;6.50;;;;;7.15;65.08;100318.59;5118961;27;45474;-68
2024/01/19 03:52:44;;;;;;;;;10.00;7.00;;;;;7.18;64.55;100318.69;5118923;27;45347;-68
2024/01/19 03:55:10;;;;;;;;;6.25;6.00;;;;;7.21;64.25;100308.44;5118594;27;45468;-68
2024/01/19 03:57:35;;;;;;;;;10.50;10.00;;;;;7.20;63.22;100322.22;5118737;27;45461;-67
2024/01/19 04:00:01;;;;;;;;;9.75;7.50;;;;;7.23;63.77;100330.16;5118993;27;45722;-68
2024/01/19 04:02:26;;;;;;;;;8.00;7.00;;;;;7.30;63.58;100326.09;5118546;27;45958;-73
2024/01/19 04:04:52;;;;;;;;;8.00;7.50;;;;;7.35;63.04;100322.84;5118666;27;45474;-73
2024/01/19 04:07:18;;;;;;;;;10.00;7.75;;;;;7.36;63.18;100322.03;5118679;27;45296;-68
2024/01/19 04:09:44;;;;;;;;;8.75;8.75;;;;;7.36;62.93;100321.13;5119096;27;45483;-67
2024/01/19 04:12:15;;;;;;;;;10.00;9.50;;;;;7.29;62.82;100311.34;5118540;27;46013;-68
2024/01/19 04:14:42;;;;;;;;;10.25;7.00;;;;;7.31;62.84;100315.75;5118442;27;45450;-67
2024/01/19 04:17:08;;;;;;;;;7.25;6.25;;;;;7.31;62.90;100314.88;5118315;27;45359;-72
2024/01/19 04:19:35;;;;;;;;;7.75;7.75;;;;;7.25;61.88;100323.31;5118620;27;45308;-68
2024/01/19 04:22:00;;;;;;;;;9.25;7.75;;;;;7.20;61.76;100317.03;5117136;27;46093;-67
2024/01/19 04:24:26;;;;;;;;;9.50;8.25;;;;;7.17;61.84;100306.53;5118173;27;45245;-67
2024/01/19 04:26:51;;;;;;;;;9.00;6.50;;;;;7.10;62.50;100308.03;5118579;27;45344;-68
2024/01/19 04:29:17;;;;;;;;;10.25;9.75;;;;;7.11;61.80;100314.09;5118998;27;45331;-68
2024/01/19 04:31:43;;;;;;;;;9.50;7.00;;;;;7.06;61.84;100318.19;5118463;27;45335;-73
2024/01/19 04:34:08;;;;;;;;;11.25;9.50;;;;;7.05;61.66;100321.66;5118340;27;45348;-68
2024/01/19 04:36:34;;;;;;;;;10.75;9.50;;;;;6.72;62.50;100270.97;5118420;27;45335;-68
2024/01/19 04:39:00;;;;;;;;;9.25;9.00;;;;;7.00;62.33;100315.34;5118389;27;45307;-74
2024/01/19 04:41:25;;;;;;;;;8.75;8.75;;;;;7.11;62.42;100314.09;5118154;27;45462;-68
2024/01/19 04:43:51;;;;;;;;;12.25;10.50;;;;;7.15;62.43;100318.59;5118197;27;45394;-68
2024/01/19 04:46:16;;;;;;;;;9.00;9.00;;;;;7.15;62.61;100310.78;5118527;27;45407;-68
2024/01/19 04:48:42;;;;;;;;;10.75;8.75;;;;;7.08;63.01;100290.56;5118462;27;45482;-68
2024/01/19 04:51:08;;;;;;;;;10.00;9.75;;;;;7.16;62.91;100308.25;5117793;27;46121;-68
2024/01/19 04:53:33;;;;;;;;;10.00;6.00;;;;;7.19;63.16;100324.78;5117893;27;45292;-68
2024/01/19 04:55:59;;;;;;;;;7.00;7.00;;;;;7.15;63.53;100323.78;5118058;27;45645;-68
2024/01/19 04:58:24;;;;;;;;;7.00;6.75;;;;;7.17;63.82;100325.59;5118287;27;45454;-68
2024/01/19 05:00:50;;;;;;;;;11.50;10.50;;;;;7.19;63.29;100336.06;5117798;27;45899;-68
2024/01/19 05:03:16;;;;;;;;;8.00;8.00;;;;;7.17;63.12;100327.31;5118003;27;45345;-67
2024/01/19 05:05:41;;;;;;;;;11.75;10.75;;;;;7.11;63.19;100333.16;5117866;27;45462;-68
2024/01/19 05:08:07;;;;;;;;;10.00;9.50;;;;;7.05;63.05;100338.09;5117652;27;45462;-68
2024/01/19 05:10:34;;;;;;;;;9.00;8.50;;;;;7.02;62.95;100342.28;5117569;27;46094;-68
2024/01/19 05:12:59;;;;;;;;;10.25;9.00;;;;;6.93;63.24;100345.41;5117946;27;45532;-68
2024/01/19 05:15:25;;;;;;;;;10.75;10.00;;;;;6.86;63.14;100336.44;5117779;27;45391;-68
2024/01/19 05:17:51;;;;;;;;;10.00;9.00;;;;;6.83;62.87;100320.75;5117961;27;45513;-68
2024/01/19 05:20:18;;;;;;;;;7.50;6.25;;;;;6.29;63.01;100260.53;5117702;27;45884;-67
2024/01/19 05:22:44;;;;;;;;;9.25;9.00;;;;;6.50;63.65;100317.63;5117390;27;45343;-68
2024/01/19 05:25:09;;;;;;;;;12.00;10.50;;;;;6.40;63.83;100326.72;5117651;27;45344;-68
2024/01/19 05:27:35;;;;;;;;;9.00;9.00;;;;;6.35;63.80;100323.94;5117811;27;45308;-67
2024/01/19 05:30:01;;;;;;;;;10.00;8.00;;;;;6.35;64.17;100330.84;5117351;27;45548;-73
2024/01/19 05:32:27;;;;;;;;;10.50;9.25;;;;;6.29;64.05;100339.25;5118017;27;45608;-74
2024/01/19 05:34:52;;;;;;;;;7.75;5.75;;;;;6.21;64.84;100347.50;5121206;27;45282;-73
2024/01/19 05:37:18;;;;;;;;;9.75;7.75;;;;;6.10;64.99;100349.63;5121471;27;45366;-73
2024/01/19 05:39:43;;;;;;;;;8.25;6.25;;;;;6.07;65.22;100360.75;5120844;27;45900;-73
2024/01/19 05:42:09;;;;;;;;;9.00;7.25;;;;;6.02;65.43;100353.56;5120827;27;45371;-72
2024/01/19 05:44:34;;;;;;;;;15.00;13.00;;;;;5.93;65.33;100349.72;5120969;27;45312;-67
2024/01/19 05:47:00;;;;;;;;;9.50;9.50;;;;;5.94;65.01;100366.16;5121166;27;45446;-67
2024/01/19 05:49:26;;;;;;;;;11.25;8.25;;;;;5.90;65.27;100367.72;5120717;27;45956;-67
2024/01/19 05:51:51;;;;;;;;;11.25;9.50;;;;;5.88;65.02;100373.66;5120674;27;45551;-67
2024/01/19 05:54:18;;;;;;;;;15.25;13.25;;;;;5.85;65.12;100373.50;5121208;27;45737;-67
2024/01/19 05:56:43;;;;;;;;;15.75;13.00;;;;;5.83;64.97;100376.06;5119636;27;45460;-69
2024/01/19 05:59:09;;;;;;;;;14.00;10.50;;;;;5.84;65.28;100371.75;5120480;27;45944;-70
2024/01/19 06:01:35;;;;;;;;;12.75;11.25;;;;;5.84;65.04;100371.75;5120542;27;45398;-69
2024/01/19 06:04:00;;;;;;;;;12.50;12.25;;;;;5.85;64.60;100374.41;5120755;27;45530;-70
2024/01/19 06:06:26;;;;;;;;;12.25;12.00;;;;;5.82;64.98;100361.28;5120650;27;45308;-69
2024/01/19 06:08:51;;;;;;;;;18.50;17.25;;;;;5.90;65.23;100378.09;5120696;27;45458;-69
2024/01/19 06:11:17;;;;;;;;;13.00;10.75;;;;;5.96;65.09;100383.59;5120368;27;45494;-69
2024/01/19 06:13:45;;;;;;;;;22.00;20.00;;;;;6.03;64.99;100383.84;5120336;27;45507;-69
2024/01/19 06:16:11;;;;;;;;;23.75;21.00;;;;;5.86;64.99;100346.78;5120596;27;45281;-69
2024/01/19 06:18:36;;;;;;;;;14.25;13.25;;;;;6.00;64.28;100376.84;5120242;27;45400;-69
2024/01/19 06:21:02;;;;;;;;;12.75;12.75;;;;;5.72;64.14;100326.28;5118077;27;45469;-69
2024/01/19 06:23:28;;;;;;;;;14.50;13.50;;;;;5.84;63.85;100348.41;5119174;27;45558;-74
2024/01/19 06:25:54;;;;;;;;;15.75;13.00;;;;;6.00;62.91;100378.56;5119549;27;45411;-70
2024/01/19 06:28:21;;;;;;;;;13.00;13.00;;;;;5.86;63.28;100367.50;5119348;27;46001;-72
2024/01/19 06:30:46;;;;;;;;;11.00;10.00;;;;;5.88;63.16;100379.72;5119344;27;45815;-69
2024/01/19 06:33:12;;;;;;;;;13.50;12.75;;;;;5.81;63.43;100392.31;5119100;27;45565;-73
2024/01/19 06:35:38;;;;;;;;;15.00;13.00;;;;;5.70;63.88;100399.59;5119147;27;45487;-69
2024/01/19 06:38:04;;;;;;;;;16.75;15.50;;;;;5.66;64.45;100395.09;5119096;27;45523;-75
2024/01/19 06:40:30;;;;;;;;;15.00;14.00;;;;;5.56;64.32;100397.25;5119191;27;45582;-68
2024/01/19 06:42:56;;;;;;;;;8.00;6.00;;;;;5.48;64.20;100400.31;5118850;27;45316;-68
2024/01/19 06:45:22;;;;;;;;;14.50;13.50;;;;;5.35;64.50;100393.63;5118586;27;45301;-73
2024/01/19 06:47:47;;;;;;;;;13.75;13.75;;;;;5.28;65.16;100392.44;5118832;27;46267;-73
2024/01/19 06:50:13;;;;;;;;;15.00;13.00;;;;;4.90;65.11;100339.69;5118651;27;45423;-69
2024/01/19 06:52:39;;;;;;;;;12.00;12.00;;;;;5.17;64.91;100402.28;5118930;27;45559;-67
2024/01/19 06:55:05;;;;;;;;;19.75;14.25;;;;;5.15;65.01;100411.69;5119222;27;45377;-69
2024/01/19 06:57:31;;;;;;;;;21.00;17.25;;;;;5.12;65.69;100413.22;5118490;27;45471;-69
2024/01/19 06:59:57;;;;;;;;;15.75;12.50;;;;;5.14;65.42;100417.66;5118562;27;45506;-68
2024/01/19 07:02:23;;;;;;;;;17.50;16.00;;;;;5.17;65.41;100402.28;5119119;27;45379;-71
2024/01/19 07:04:49;;;;;;;;;18.00;17.00;;;;;5.23;65.76;100408.56;5118930;27;45448;-69
2024/01/19 07:07:15;;;;;;;;;17.00;13.75;;;;;4.99;65.48;100349.59;5118338;27;45384;-69
2024/01/19 07:09:41;;;;;;;;;18.25;16.50;;;;;5.23;65.27;100404.28;5118631;27;45371;-70
2024/01/19 07:12:07;;;;;;;;;15.00;12.75;;;;;5.27;65.02;100406.22;5118647;27;45466;-73
2024/01/19 07:14:32;;;;;;;;;17.25;16.00;;;;;5.23;65.18;100409.44;5118793;27;45611;-74
2024/01/19 07:16:58;;;;;;;;;16.00;15.00;;;;;5.22;65.26;100407.69;5118338;27;46019;-73
2024/01/19 07:19:23;;;;;;;;;16.25;13.50;;;;;5.23;65.16;100404.28;5118029;27;45429;-69
2024/01/19 07:21:49;;;;;;;;;15.50;13.50;;;;;5.27;64.90;100395.88;5118360;27;45343;-68
2024/01/19 07:24:15;;;;;;;;;13.00;11.75;;;;;5.15;64.73;100364.16;5118599;27;45246;-69
2024/01/19 07:26:41;;;;;;;;;18.25;16.00;;;;;5.35;65.06;100402.31;5118128;27;46196;-72
2024/01/19 07:29:08;;;;;;;;;16.75;15.50;;;;;5.34;64.66;100397.03;5118153;27;45210;-69
2024/01/19 07:31:35;;;;;;;;;15.50;13.00;;;;;5.33;64.77;100410.78;5118155;27;45418;-68
2024/01/19 07:34:02;;;;;;;;;13.50;12.50;;;;;5.19;65.29;100404.94;5118260;27;45360;-74
2024/01/19 07:36:27;;;;;;;;;20.25;15.25;;;;;5.17;64.78;100416.91;5117783;27;46234;-74
2024/01/19 07:38:54;;;;;;;;;13.00;12.00;;;;;4.94;65.45;100408.91;5118283;27;45467;-73
2024/01/19 07:41:20;;;;;;;;;20.75;16.25;;;;;4.93;65.89;100422.69;5111001;27;45560;-68
2024/01/19 07:43:45;;;;;;;;;13.00;11.50;;;;;4.90;65.57;100419.03;5118108;27;45638;-74
2024/01/19 07:46:12;;;;;;;;;19.25;17.00;;;;;4.91;65.54;100433.75;5118061;27;45938;-69
2024/01/19 07:48:38;;;;;;;;;15.75;13.25;;;;;4.63;66.01;100395.22;5117921;27;45583;-69
2024/01/19 07:51:04;;;;;;;;;19.00;13.25;;;;;4.89;65.56;100441.41;5117939;27;45454;-68
2024/01/19 07:53:31;;;;;;;;;11.50;9.50;;;;;4.90;65.89;100450.09;5118432;27;45509;-69
2024/01/19 07:55:57;;;;;;;;;19.25;16.00;;;;;4.87;65.81;100442.16;5117720;27;45443;-68
2024/01/19 07:58:23;;;;;;;;;14.25;11.75;;;;;4.61;65.86;100387.38;5118292;27;45414;-70
2024/01/19 08:00:49;;;;;;;;;25.25;21.00;;;;;4.91;65.51;100426.84;5115285;27;45567;-69
2024/01/19 08:03:16;;;;;;;;;53.50;44.75;;;;;4.67;65.85;100386.81;5117843;27;45225;-69
2024/01/19 08:05:41;;;;;;;;;23.00;23.00;;;;;4.86;65.58;100423.16;5117685;27;46220;-68
2024/01/19 08:08:07;;;;;;;;;16.25;13.00;;;;;4.91;65.94;100437.22;5118131;27;45784;-69
2024/01/19 08:10:35;;;;;;;;;16.00;13.00;;;;;4.68;65.25;100401.53;5118804;27;45248;-69
2024/01/19 08:13:01;;;;;;;;;7.00;6.00;;;;;4.86;65.48;100446.47;5118805;27;45396;-69
2024/01/19 08:15:26;;;;;;;;;17.75;14.50;;;;;4.82;65.11;100439.34;5117519;27;45447;-69
2024/01/19 08:17:52;;;;;;;;;12.00;10.50;;;;;4.73;66.17;100449.22;5117730;27;45493;-69
2024/01/19 08:20:18;;;;;;;;;14.75;12.25;;;;;4.36;65.64;100405.94;5117672;27;45371;-69
2024/01/19 08:22:43;;;;;;;;;11.75;11.75;;;;;4.43;66.43;100440.75;5117792;27;45385;-69
2024/01/19 08:25:09;;;;;;;;;14.50;11.00;;;;;4.39;66.99;100430.22;5114750;27;45624;-71
2024/01/19 08:27:39;;;;;;;;;13.25;12.25;;;;;4.63;67.04;100447.84;5117108;27;45487;-72
2024/01/19 08:30:06;;;;;;;;;15.00;13.75;;;;;4.73;66.69;100463.03;5115938;27;45514;-72
2024/01/19 08:32:31;;;;;;;;;13.00;10.50;;;;;4.62;66.12;100414.16;5117049;27;45611;-72
2024/01/19 08:34:57;;;;;;;;;12.50;12.00;;;;;4.92;66.00;100457.13;5116969;27;45936;-70
2024/01/19 08:37:23;;;;;;;;;16.00;13.25;;;;;4.97;65.65;100463.44;5106648;27;45394;-71
2024/01/19 08:39:48;;;;;;;;;16.50;12.50;;;;;5.06;64.94;100459.53;5115475;27;45379;-69
2024/01/19 08:42:14;;;;;;;;;16.00;13.25;;;;;5.23;64.36;100462.94;5117186;27;45459;-69
2024/01/19 08:44:44;;;;;;;;;17.00;13.25;;;;;5.07;65.05;100414.69;5107303;27;46293;-69
2024/01/19 08:47:10;;;;;;;;;16.50;14.50;;;;;5.40;64.41;100450.84;5114406;27;45434;-69
2024/01/19 08:49:36;;;;;;;;;17.50;13.50;;;;;5.54;63.87;100470.56;5117603;27;45396;-72
2024/01/19 08:52:02;;;;;;;;;14.25;13.00;;;;;5.57;63.98;100463.81;5118103;27;45373;-71
2024/01/19 08:54:27;;;;;;;;;15.75;13.50;;;;;5.40;63.60;100424.94;5118298;27;45440;-72
2024/01/19 08:56:54;;;;;;;;;17.50;16.00;;;;;5.70;63.31;100462.69;5117852;27;45573;-72
2024/01/19 08:59:20;;;;;;;;;31.25;30.25;;;;;5.85;63.31;100472.00;5117726;27;45492;-72
2024/01/19 09:01:46;;;;;;;;;9.75;8.00;;;;;5.93;63.17;100475.88;5117934;27;45481;-72
2024/01/19 09:04:12;;;;;;;;;16.25;16.00;;;;;6.05;62.75;100476.50;5127314;27;45486;-71
2024/01/19 09:06:37;;;;;;;;;15.50;14.00;;;;;6.14;62.60;100476.91;5118489;27;45354;-71
2024/01/19 09:09:03;;;;;;;;;17.00;13.00;;;;;5.95;62.02;100435.41;5120004;27;45235;-72
2024/01/19 09:11:32;;;;;;;;;16.00;13.75;;;;;6.25;61.87;100481.72;5121205;27;45466;-71
2024/01/19 09:13:57;;;;;;;;;8.75;5.75;;;;;6.17;61.46;100450.25;5120837;27;45496;-72
2024/01/19 09:16:23;;;;;;;;;21.50;17.75;;;;;6.43;60.91;100477.38;5119471;27;45379;-72
2024/01/19 09:18:48;;;;;;;;;24.50;19.75;;;;;6.37;61.04;100471.91;5120688;27;45402;-72
2024/01/19 09:21:17;;;;;;;;;28.00;21.50;;;;;6.49;60.28;100481.94;5120562;27;45398;-72
2024/01/19 09:23:43;;;;;;;;;36.25;30.50;;;;;6.59;60.38;100478.94;5120364;27;45941;-72
2024/01/19 09:26:22;;;;;;;;;34.50;30.75;;;;;6.58;60.26;100443.41;5120861;27;45311;-72
2024/01/19 09:28:48;;;;;;;;;31.00;27.75;;;;;6.77;59.45;100473.69;5120981;27;45253;-71
2024/01/19 09:31:14;;;;;;;;;35.00;29.50;;;;;6.89;59.34;100462.94;5120859;27;45490;-73
2024/01/19 09:33:40;;;;;;;;;24.00;22.50;;;;;7.16;59.35;100476.22;5119449;27;47084;-74
2024/01/19 09:36:06;;;;;;;;;21.25;20.75;;;;;7.35;58.03;100468.38;5120707;27;45525;-71
2024/01/19 09:38:35;;;;;;;;;24.00;20.25;;;;;7.58;56.68;100471.06;5119795;27;45525;-71
2024/01/19 09:41:26;;;;;;;;;25.00;24.50;;;;;7.54;57.22;100438.84;5119653;27;45683;-74
2024/01/19 09:43:57;;;;;;;;;15.50;14.75;;;;;7.99;55.26;100482.19;5117244;27;47096;-71
2024/01/19 09:46:48;;;;;;;;;27.50;26.50;;;;;8.41;54.90;100465.56;5119783;27;45413;-72
2024/01/19 09:49:26;;;;;;;;;28.25;27.25;;;;;8.53;53.89;100466.06;5118402;27;45508;-72
2024/01/19 09:52:09;;;;;;;;;25.50;22.50;;;;;9.03;52.73;100466.09;5118097;27;45371;-71
2024/01/19 09:54:37;;;;;;;;;29.50;27.50;;;;;9.36;52.28;100472.47;5118250;27;45326;-72
2024/01/19 09:57:03;;;;;;;;;29.25;28.00;;;;;9.49;51.23;100475.47;5120083;27;45360;-71
2024/01/19 09:59:33;;;;;;;;;29.75;27.50;;;;;10.01;51.34;100485.00;5120245;27;45421;-72
2024/01/19 10:02:00;;;;;;;;;38.00;32.50;;;;;10.41;49.50;100491.47;5120713;27;45492;-71
2024/01/19 10:04:27;;;;;;;;;26.25;24.50;;;;;10.88;49.16;100489.34;5120360;27;46401;-71
2024/01/19 10:06:54;;;;;;;;;22.50;21.25;;;;;11.03;48.62;100493.22;5120284;27;45530;-71
2024/01/19 10:09:20;;;;;;;;;20.00;16.00;;;;;10.72;48.07;100501.09;5120303;27;45496;-70
2024/01/19 10:11:50;;;;;;;;;19.25;16.75;;;;;10.41;48.52;100499.28;5120518;27;45327;-69
2024/01/19 10:14:17;;;;;;;;;15.25;14.50;;;;;10.30;48.16;100512.00;5120017;27;45983;-71
2024/01/19 10:16:43;;;;;;;;;10.50;9.25;;;;;10.40;48.31;100515.78;5119978;27;45565;-70
2024/01/19 10:19:13;;;;;;;;;14.50;12.75;;;;;10.02;47.75;100523.28;5118902;27;45511;-72
2024/01/19 10:21:39;;;;;;;;;16.50;16.00;;;;;9.25;48.23;100497.31;5120478;27;45334;-72
2024/01/19 10:24:17;;;;;;;;;13.75;13.25;;;;;9.21;49.63;100544.03;5119682;27;46414;-73
2024/01/19 10:26:46;;;;;;;;;13.75;12.75;;;;;9.21;49.75;100544.94;5119874;27;45458;-72
2024/01/19 10:29:15;;;;;;;;;12.00;11.25;;;;;9.16;49.54;100536.94;5117902;27;45568;-71
2024/01/19 10:31:45;;;;;;;;;10.50;9.25;;;;;8.89;50.13;100513.41;5119356;27;45595;-74
2024/01/19 10:34:21;;;;;;;;;10.25;9.75;;;;;9.27;50.34;100547.75;5119048;27;46146;-72
2024/01/19 10:36:48;;;;;;;;;14.00;12.50;;;;;9.11;49.69;100499.44;5119082;27;45267;-71
2024/01/19 10:39:20;;;;;;;;;7.00;7.00;;;;;9.39;48.12;100538.56;5116512;27;45339;-70
2024/01/19 10:41:48;;;;;;;;;10.50;9.50;;;;;9.44;49.39;100531.81;5119430;27;45498;-68
2024/01/19 10:44:19;;;;;;;;;13.50;11.75;;;;;9.46;49.56;100535.34;5115864;27;45559;-72
2024/01/19 10:46:46;;;;;;;;;10.75;9.00;;;;;9.27;49.02;100539.03;5119671;27;45512;-72
2024/01/19 10:49:15;;;;;;;;;11.75;8.75;;;;;9.15;49.00;100527.38;5119904;27;45456;-72
2024/01/19 10:51:44;;;;;;;;;12.00;11.00;;;;;9.10;49.92;100500.25;5119791;27;45482;-73
2024/01/19 10:54:23;;;;;;;;;7.50;7.00;;;;;9.21;47.93;100505.84;5118056;27;46419;-74
2024/01/19 10:57:09;;;;;;;;;9.00;9.00;;;;;9.16;47.76;100515.22;5119397;27;45429;-70
2024/01/19 10:59:35;;;;;;;;;6.50;3.50;;;;;8.53;47.90;100487.78;5119513;27;45333;-70
2024/01/19 11:02:03;;;;;;;;;12.75;11.00;;;;;8.34;48.83;100467.06;5119219;27;45427;-81
2024/01/19 11:04:29;;;;;;;;;8.00;6.75;;;;;8.40;49.26;100492.44;5119255;27;45554;-71
2024/01/19 11:06:56;;;;;;;;;5.75;3.00;;;;;8.36;48.92;100496.66;5119180;27;45495;-70
2024/01/19 11:09:21;;;;;;;;;7.25;6.50;;;;;8.20;48.74;100494.25;5119354;27;45517;-69
2024/01/19 11:11:53;;;;;;;;;8.00;7.00;;;;;8.07;49.39;100498.13;5119498;27;45454;-72
2024/01/19 11:14:23;;;;;;;;;7.25;6.75;;;;;8.08;50.03;100498.19;5119361;27;45415;-69
2024/01/19 11:16:51;;;;;;;;;11.50;11.00;;;;;8.08;50.11;100487.78;5118281;27;45462;-71
2024/01/19 11:19:17;;;;;;;;;7.50;7.50;;;;;8.03;49.73;100491.91;5118442;27;45295;-71
2024/01/19 11:21:44;;;;;;;;;2.00;0.50;;;;;7.95;50.29;100485.50;5118933;27;45487;-71